createdAt,value
2022-10-17T00:00:58.098Z,12.73
2022-10-17T00:03:47.677Z,12.74
2022-10-17T00:06:29.365Z,12.75
2022-10-17T00:09:11.056Z,12.75
2022-10-17T00:11:52.850Z,12.76
2022-10-17T00:14:35.052Z,12.77
2022-10-17T00:17:16.756Z,12.78
2022-10-17T00:20:00.155Z,12.81
2022-10-17T00:22:43.095Z,12.84
2022-10-17T00:25:25.093Z,12.87
2022-10-17T00:28:09.859Z,12.90
2022-10-17T00:31:03.119Z,12.92
2022-10-17T00:33:45.118Z,12.93
2022-10-17T00:36:27.320Z,12.94
2022-10-17T00:39:09.525Z,12.94
2022-10-17T00:41:51.418Z,12.93
2022-10-17T00:44:34.749Z,12.91
2022-10-17T00:47:22.599Z,12.88
2022-10-17T00:50:07.350Z,12.85
2022-10-17T00:52:49.534Z,12.82
2022-10-17T00:55:35.541Z,12.79
2022-10-17T00:58:19.106Z,12.78
2022-10-17T01:01:02.858Z,12.78
2022-10-17T01:03:44.914Z,12.80
2022-10-17T01:06:27.281Z,12.82
2022-10-17T01:09:09.238Z,12.84
2022-10-17T01:12:06.780Z,12.86
2022-10-17T01:15:11.305Z,12.89
2022-10-17T01:18:08.459Z,12.91
2022-10-17T01:21:00.054Z,12.94
2022-10-17T01:24:14.271Z,12.96
2022-10-17T01:27:26.134Z,12.98
2022-10-17T01:30:29.432Z,12.99
2022-10-17T01:33:19.838Z,13.03
2022-10-17T01:36:05.997Z,13.05
2022-10-17T01:39:15.056Z,13.07
2022-10-17T01:42:14.154Z,13.10
2022-10-17T01:45:13.561Z,13.12
2022-10-17T01:48:00.678Z,13.13
2022-10-17T01:50:48.621Z,13.14
2022-10-17T01:53:36.048Z,13.15
2022-10-17T01:56:19.990Z,13.17
2022-10-17T01:59:13.452Z,13.18
2022-10-17T02:01:57.395Z,13.19
2022-10-17T02:04:41.750Z,13.19
2022-10-17T02:07:23.542Z,13.18
2022-10-17T02:10:15.372Z,13.16
2022-10-17T02:13:27.786Z,13.14
2022-10-17T02:16:37.944Z,13.14
2022-10-17T02:19:55.064Z,13.15
2022-10-17T02:23:01.125Z,13.16
2022-10-17T02:25:51.109Z,13.17
2022-10-17T02:28:47.790Z,13.17
2022-10-17T02:31:36.712Z,13.18
2022-10-17T02:34:41.054Z,13.20
2022-10-17T02:37:27.873Z,13.19
2022-10-17T02:40:14.454Z,13.20
2022-10-17T02:42:58.599Z,13.20
2022-10-17T02:45:40.802Z,13.20
2022-10-17T02:48:31.001Z,13.18
2022-10-17T02:51:24.256Z,13.18
2022-10-17T02:54:10.041Z,13.16
2022-10-17T02:57:02.535Z,13.15
2022-10-17T02:59:46.121Z,13.13
2022-10-17T03:02:28.659Z,13.11
2022-10-17T03:05:12.979Z,13.11
2022-10-17T03:07:56.110Z,13.09
2022-10-17T03:10:39.541Z,13.07
2022-10-17T03:13:21.337Z,13.05
2022-10-17T03:16:03.131Z,13.03
2022-10-17T03:18:47.962Z,13.01
2022-10-17T03:21:32.348Z,12.97
2022-10-17T03:24:14.549Z,12.92
2022-10-17T03:26:56.279Z,12.88
2022-10-17T03:29:38.340Z,12.86
2022-10-17T03:32:20.850Z,12.85
2022-10-17T03:35:03.872Z,12.84
2022-10-17T03:37:45.666Z,12.82
2022-10-17T03:40:27.562Z,12.82
2022-10-17T03:43:11.608Z,12.81
2022-10-17T03:45:54.426Z,12.80
2022-10-17T03:48:36.422Z,12.77
2022-10-17T03:51:19.037Z,12.75
2022-10-17T03:54:05.129Z,12.71
2022-10-17T03:56:47.104Z,12.67
2022-10-17T03:59:31.481Z,12.65
2022-10-17T04:02:17.985Z,12.63
2022-10-17T04:04:59.983Z,12.61
2022-10-17T04:07:41.777Z,12.59
2022-10-17T04:10:24.595Z,12.56
2022-10-17T04:13:07.001Z,12.52
2022-10-17T04:16:00.573Z,12.50
2022-10-17T04:18:43.081Z,12.47
2022-10-17T04:21:27.259Z,12.44
2022-10-17T04:24:11.993Z,12.41
2022-10-17T04:27:05.869Z,12.38
2022-10-17T04:29:50.632Z,12.36
2022-10-17T04:32:39.080Z,12.34
2022-10-17T04:35:29.782Z,12.31
2022-10-17T04:38:16.131Z,12.28
2022-10-17T04:41:04.334Z,12.24
2022-10-17T04:43:48.643Z,12.19
2022-10-17T04:46:34.775Z,12.16
2022-10-17T04:49:16.580Z,12.15
2022-10-17T04:51:59.282Z,12.16
2022-10-17T04:54:50.730Z,12.16
2022-10-17T04:57:35.878Z,12.16
2022-10-17T05:00:31.595Z,12.15
2022-10-17T05:03:24.855Z,12.15
2022-10-17T05:06:12.399Z,12.15
2022-10-17T05:08:54.586Z,12.15
2022-10-17T05:11:36.482Z,12.14
2022-10-17T05:14:18.275Z,12.13
2022-10-17T05:17:00.070Z,12.12
2022-10-17T05:19:43.403Z,12.06
2022-10-17T05:22:25.294Z,12.01
2022-10-17T05:25:07.598Z,11.96
2022-10-17T05:27:49.410Z,11.92
2022-10-17T05:30:36.729Z,11.90
2022-10-17T05:33:23.525Z,11.89
2022-10-17T05:36:07.602Z,11.89
2022-10-17T05:38:51.516Z,11.90
2022-10-17T05:41:33.411Z,11.92
2022-10-17T05:44:15.821Z,11.93
2022-10-17T05:47:00.378Z,11.94
2022-10-17T05:49:49.963Z,11.93
2022-10-17T05:52:36.494Z,11.93
2022-10-17T05:55:25.316Z,11.93
2022-10-17T05:58:07.213Z,11.94
2022-10-17T06:00:52.256Z,11.95
2022-10-17T06:03:34.178Z,11.97
2022-10-17T06:06:20.170Z,11.99
2022-10-17T06:09:03.199Z,12.01
2022-10-17T06:11:48.056Z,12.03
2022-10-17T06:14:30.361Z,12.05
2022-10-17T06:17:16.542Z,12.08
2022-10-17T06:19:59.887Z,12.10
2022-10-17T06:22:42.463Z,12.14
2022-10-17T06:25:31.872Z,12.16
2022-10-17T06:28:13.564Z,12.19
2022-10-17T06:30:55.977Z,12.25
2022-10-17T06:33:38.274Z,12.31
2022-10-17T06:36:20.375Z,12.37
2022-10-17T06:39:02.680Z,12.45
2022-10-17T06:41:50.516Z,12.52
2022-10-17T06:44:34.871Z,12.59
2022-10-17T06:47:37.487Z,12.65
2022-10-17T06:50:29.790Z,12.71
2022-10-17T06:53:28.797Z,12.76
2022-10-17T06:56:49.291Z,12.82
2022-10-17T06:59:44.497Z,12.89
2022-10-17T07:02:32.250Z,12.99
2022-10-17T07:05:16.072Z,13.18
2022-10-17T07:07:57.772Z,13.36
2022-10-17T07:10:40.168Z,13.51
2022-10-17T07:13:23.907Z,13.65
2022-10-17T07:16:07.138Z,13.76
2022-10-17T07:18:51.191Z,13.87
2022-10-17T07:21:36.568Z,14.02
2022-10-17T07:24:21.524Z,14.15
2022-10-17T07:27:08.541Z,14.27
2022-10-17T07:29:50.266Z,14.41
2022-10-17T07:32:38.374Z,14.52
2022-10-17T07:35:21.810Z,14.61
2022-10-17T07:38:03.906Z,14.70
2022-10-17T07:40:45.705Z,14.78
2022-10-17T07:43:28.823Z,14.86
2022-10-17T07:46:11.848Z,15.00
2022-10-17T07:48:53.740Z,15.10
2022-10-17T07:51:36.477Z,15.21
2022-10-17T07:54:18.352Z,15.27
2022-10-17T07:57:00.111Z,15.26
2022-10-17T07:59:42.213Z,15.22
2022-10-17T08:02:26.749Z,15.19
2022-10-17T08:05:08.916Z,15.19
2022-10-17T08:07:54.554Z,15.24
2022-10-17T08:10:37.032Z,15.33
2022-10-17T08:13:19.035Z,15.40
2022-10-17T08:16:07.820Z,15.49
2022-10-17T08:18:50.272Z,15.57
2022-10-17T08:21:32.265Z,15.68
2022-10-17T08:24:14.272Z,15.76
2022-10-17T08:26:58.529Z,15.87
2022-10-17T08:29:41.132Z,16.02
2022-10-17T08:32:27.364Z,16.17
2022-10-17T08:35:10.238Z,16.28
2022-10-17T08:37:52.555Z,16.37
2022-10-17T08:40:35.679Z,16.50
2022-10-17T08:43:36.619Z,16.71
2022-10-17T08:46:20.328Z,16.93
2022-10-17T08:49:12.173Z,17.09
2022-10-17T08:52:01.790Z,17.23
2022-10-17T08:54:47.334Z,17.35
2022-10-17T08:57:29.337Z,17.50
2022-10-17T09:00:18.758Z,17.66
2022-10-17T09:06:40.044Z,18.17
2022-10-17T09:09:29.517Z,18.36
2022-10-17T09:12:23.599Z,18.54
2022-10-17T09:15:43.383Z,18.75
2022-10-17T09:18:29.598Z,18.98
2022-10-17T09:21:53.178Z,19.21
2022-10-17T09:24:37.740Z,19.44
2022-10-17T09:27:36.194Z,19.57
2022-10-17T09:30:33.483Z,19.73
2022-10-17T09:33:35.944Z,19.94
2022-10-17T09:36:37.363Z,20.17
2022-10-17T09:39:23.069Z,20.37
2022-10-17T09:42:05.171Z,20.58
2022-10-17T09:45:13.482Z,20.78
2022-10-17T09:48:17.805Z,20.98
2022-10-17T09:51:14.604Z,21.13
2022-10-17T09:54:07.504Z,21.26
2022-10-17T09:57:06.807Z,21.42
2022-10-17T09:59:58.151Z,21.52
2022-10-17T10:02:41.048Z,21.60
2022-10-17T10:05:22.838Z,21.62
2022-10-17T10:08:13.439Z,21.66
2022-10-17T10:11:00.864Z,21.75
2022-10-17T10:13:43.375Z,21.81
2022-10-17T10:16:32.948Z,21.87
2022-10-17T10:19:31.319Z,21.89
2022-10-17T10:22:18.183Z,21.84
2022-10-17T10:25:16.830Z,21.83
2022-10-17T10:28:00.729Z,21.86
2022-10-17T10:30:48.508Z,21.97
2022-10-17T10:33:32.287Z,22.13
2022-10-17T10:36:14.040Z,22.29
2022-10-17T10:39:01.215Z,22.39
2022-10-17T10:41:48.582Z,22.47
2022-10-17T10:44:33.209Z,22.51
2022-10-17T10:47:30.166Z,22.58
2022-10-17T10:50:31.748Z,22.68
2022-10-17T10:53:32.818Z,22.78
2022-10-17T10:56:41.698Z,22.82
2022-10-17T10:59:38.365Z,22.86
2022-10-17T11:02:31.014Z,22.92
2022-10-17T11:05:28.165Z,22.96
2022-10-17T11:08:20.518Z,23.03
2022-10-17T11:11:25.032Z,23.05
2022-10-17T11:14:38.673Z,23.09
2022-10-17T11:17:43.301Z,23.12
2022-10-17T11:20:53.052Z,23.13
2022-10-17T11:23:44.981Z,23.17
2022-10-17T11:26:29.655Z,23.17
2022-10-17T11:29:13.596Z,23.14
2022-10-17T11:31:58.467Z,23.16
2022-10-17T11:34:46.183Z,23.19
2022-10-17T11:37:34.460Z,23.19
2022-10-17T11:40:24.388Z,23.21
2022-10-17T11:43:20.543Z,23.24
2022-10-17T11:46:10.629Z,23.29
2022-10-17T11:48:59.532Z,23.32
2022-10-17T11:52:00.639Z,23.35
2022-10-17T11:54:50.503Z,23.40
2022-10-17T11:58:02.318Z,23.44
2022-10-17T12:01:08.275Z,23.45
2022-10-17T12:04:06.769Z,23.41
2022-10-17T12:07:01.223Z,23.37
2022-10-17T12:10:00.248Z,23.34
2022-10-17T12:12:41.938Z,23.36
2022-10-17T12:15:23.629Z,23.38
2022-10-17T12:18:05.729Z,23.40
2022-10-17T12:21:01.244Z,23.45
2022-10-17T12:23:52.783Z,23.48
2022-10-17T12:26:34.562Z,23.49
2022-10-17T12:29:30.176Z,23.51
2022-10-17T12:32:13.096Z,23.55
2022-10-17T12:34:57.362Z,23.59
2022-10-17T12:37:48.356Z,23.61
2022-10-17T12:40:35.781Z,23.63
2022-10-17T12:43:17.473Z,23.68
2022-10-17T12:46:04.591Z,23.75
2022-10-17T12:49:00.945Z,23.78
2022-10-17T12:52:11.185Z,23.78
2022-10-17T12:55:14.235Z,23.78
2022-10-17T12:58:03.161Z,23.78
2022-10-17T13:01:18.843Z,23.79
2022-10-17T13:04:04.434Z,23.81
2022-10-17T13:07:21.119Z,23.82
2022-10-17T13:10:05.455Z,23.78
2022-10-17T13:12:48.187Z,23.74
2022-10-17T13:15:42.714Z,23.70
2022-10-17T13:18:43.284Z,23.65
2022-10-17T13:21:33.692Z,23.57
2022-10-17T13:24:29.634Z,23.50
2022-10-17T13:27:30.425Z,23.44
2022-10-17T13:30:32.570Z,23.37
2022-10-17T13:33:40.659Z,23.32
2022-10-17T13:36:24.967Z,23.29
2022-10-17T13:39:17.231Z,23.30
2022-10-17T13:42:04.345Z,23.33
2022-10-17T13:44:49.821Z,23.37
2022-10-17T13:47:38.597Z,23.40
2022-10-17T13:50:46.116Z,23.41
2022-10-17T13:53:33.110Z,23.39
2022-10-17T13:56:29.823Z,23.37
2022-10-17T13:59:24.037Z,23.35
2022-10-17T14:02:12.795Z,23.33
2022-10-17T14:05:18.927Z,23.30
2022-10-17T14:08:13.681Z,23.26
2022-10-17T14:10:56.573Z,23.21
2022-10-17T14:13:38.776Z,23.16
2022-10-17T14:16:21.497Z,23.10
2022-10-17T14:19:06.109Z,23.03
2022-10-17T14:21:55.027Z,22.96
2022-10-17T14:24:37.002Z,22.89
2022-10-17T14:27:53.005Z,22.82
2022-10-17T14:30:57.837Z,22.71
2022-10-17T14:33:50.516Z,22.62
2022-10-17T14:36:42.908Z,22.54
2022-10-17T14:39:27.356Z,22.48
2022-10-17T14:42:19.614Z,22.41
2022-10-17T14:45:08.379Z,22.36
2022-10-17T14:47:51.952Z,22.31
2022-10-17T14:50:33.730Z,22.25
2022-10-17T14:53:15.408Z,22.20
2022-10-17T14:55:59.955Z,22.13
2022-10-17T14:58:41.599Z,22.08
2022-10-17T15:01:23.338Z,22.02
2022-10-17T15:04:05.132Z,21.97
2022-10-17T15:06:55.630Z,21.91
2022-10-17T15:09:37.320Z,21.85
2022-10-17T15:12:21.688Z,21.80
2022-10-17T15:15:03.568Z,21.74
2022-10-17T15:17:45.381Z,21.69
2022-10-17T15:20:30.157Z,21.63
2022-10-17T15:23:11.917Z,21.57
2022-10-17T15:25:54.017Z,21.51
2022-10-17T15:28:35.834Z,21.45
2022-10-17T15:31:21.834Z,21.37
2022-10-17T15:34:03.904Z,21.31
2022-10-17T15:36:52.826Z,21.24
2022-10-17T15:42:34.063Z,21.06
2022-10-17T15:45:18.624Z,20.95
2022-10-17T15:48:05.403Z,20.84
2022-10-17T15:51:32.038Z,20.69
2022-10-17T15:54:14.999Z,20.50
2022-10-17T15:56:58.223Z,20.36
2022-10-17T15:59:40.018Z,20.24
2022-10-17T16:02:23.825Z,20.11
2022-10-17T16:05:15.073Z,19.94
2022-10-17T16:07:57.896Z,19.73
2022-10-17T16:10:40.533Z,19.57
2022-10-17T16:13:26.783Z,19.38
2022-10-17T16:16:12.319Z,19.19
2022-10-17T16:18:54.388Z,19.02
2022-10-17T16:21:39.407Z,18.92
2022-10-17T16:24:21.147Z,18.85
2022-10-17T16:27:06.348Z,18.79
2022-10-17T16:29:50.975Z,18.72
2022-10-17T16:32:33.719Z,18.63
2022-10-17T16:35:27.341Z,18.51
2022-10-17T16:38:09.258Z,18.36
2022-10-17T16:40:51.256Z,18.23
2022-10-17T16:43:36.619Z,18.12
2022-10-17T16:46:19.209Z,17.99
2022-10-17T16:49:00.938Z,17.82
2022-10-17T16:51:42.628Z,17.67
2022-10-17T16:54:24.761Z,17.56
2022-10-17T16:57:06.523Z,17.48
2022-10-17T16:59:48.416Z,17.44
2022-10-17T17:02:30.359Z,17.40
2022-10-17T17:05:12.419Z,17.35
2022-10-17T17:07:56.051Z,17.32
2022-10-17T17:10:37.741Z,17.29
2022-10-17T17:13:19.738Z,17.28
2022-10-17T17:16:45.060Z,17.27
2022-10-17T17:19:27.563Z,17.22
2022-10-17T17:22:09.356Z,17.18
2022-10-17T17:24:51.153Z,17.11
2022-10-17T17:27:33.077Z,17.04
2022-10-17T17:30:15.500Z,16.98
2022-10-17T17:32:58.226Z,16.93
2022-10-17T17:35:40.882Z,16.88
2022-10-17T17:38:22.778Z,16.83
2022-10-17T17:44:03.242Z,16.76
2022-10-17T17:46:45.778Z,16.69
2022-10-17T17:49:28.115Z,16.65
2022-10-17T17:52:10.588Z,16.62
2022-10-17T17:54:52.279Z,16.60
2022-10-17T17:57:35.197Z,16.54
2022-10-17T18:00:17.604Z,16.49
2022-10-17T18:02:59.400Z,16.44
2022-10-17T18:05:41.092Z,16.40
2022-10-17T18:08:23.371Z,16.36
2022-10-17T18:11:05.297Z,16.30
2022-10-17T18:13:47.391Z,16.24
2022-10-17T18:16:31.096Z,16.19
2022-10-17T18:19:13.128Z,16.15
2022-10-17T18:21:54.819Z,16.08
2022-10-17T18:24:36.612Z,15.99
2022-10-17T18:27:18.304Z,15.90
2022-10-17T18:29:59.995Z,15.84
2022-10-17T18:32:41.889Z,15.80
2022-10-17T18:35:23.684Z,15.76
2022-10-17T18:38:05.347Z,15.71
2022-10-17T18:40:50.644Z,15.66
2022-10-17T18:43:34.491Z,15.60
2022-10-17T18:46:26.119Z,15.53
2022-10-17T18:49:10.264Z,15.45
2022-10-17T18:51:54.928Z,15.38
2022-10-17T18:54:40.460Z,15.29
2022-10-17T18:57:25.998Z,15.19
2022-10-17T19:00:14.025Z,15.09
2022-10-17T19:02:56.227Z,15.00
2022-10-17T19:05:41.889Z,14.91
2022-10-17T19:08:23.602Z,14.82
2022-10-17T19:11:10.824Z,14.73
2022-10-17T19:13:54.461Z,14.65
2022-10-17T19:16:37.505Z,14.56
2022-10-17T19:19:25.011Z,14.48
2022-10-17T19:22:07.036Z,14.45
2022-10-17T19:24:48.801Z,14.43
2022-10-17T19:27:31.821Z,14.42
2022-10-17T19:30:14.333Z,14.45
2022-10-17T19:32:56.435Z,14.47
2022-10-17T19:35:38.227Z,14.49
2022-10-17T19:38:19.919Z,14.50
2022-10-17T19:41:07.009Z,14.51
2022-10-17T19:43:49.137Z,14.48
2022-10-17T19:46:32.262Z,14.43
2022-10-17T19:49:14.773Z,14.36
2022-10-17T19:51:56.568Z,14.29
2022-10-17T19:54:40.668Z,14.23
2022-10-17T19:57:22.447Z,14.14
2022-10-17T20:00:04.782Z,14.09
2022-10-17T20:02:53.363Z,14.09
2022-10-17T20:05:38.126Z,14.10
2022-10-17T20:08:20.485Z,14.13
2022-10-17T20:11:04.683Z,14.16
2022-10-17T20:13:47.089Z,14.19
2022-10-17T20:16:32.212Z,14.22
2022-10-17T20:19:14.055Z,14.25
2022-10-17T20:21:55.748Z,14.26
2022-10-17T20:24:37.439Z,14.27
2022-10-17T20:27:19.231Z,14.26
2022-10-17T20:30:02.563Z,14.26
2022-10-17T20:32:44.662Z,14.29
2022-10-17T20:35:26.386Z,14.35
2022-10-17T20:38:08.018Z,14.40
2022-10-17T20:40:52.054Z,14.46
2022-10-17T20:43:38.398Z,14.50
2022-10-17T20:46:36.382Z,14.56
2022-10-17T20:49:20.583Z,14.62
2022-10-17T20:52:02.614Z,14.67
2022-10-17T20:54:44.405Z,14.71
2022-10-17T20:57:26.092Z,14.74
2022-10-17T21:00:08.604Z,14.77
2022-10-17T21:02:50.534Z,14.82
2022-10-17T21:05:32.394Z,14.84
2022-10-17T21:08:14.597Z,14.86
2022-10-17T21:11:10.419Z,14.87
2022-10-17T21:13:59.663Z,14.86
2022-10-17T21:16:41.970Z,14.85
2022-10-17T21:19:34.665Z,14.86
2022-10-17T21:23:00.577Z,14.83
2022-10-17T21:25:42.224Z,14.82
2022-10-17T21:28:23.908Z,14.83
2022-10-17T21:31:18.032Z,14.85
2022-10-17T21:34:05.458Z,14.84
2022-10-17T21:36:48.399Z,14.84
2022-10-17T21:39:33.448Z,14.81
2022-10-17T21:42:15.141Z,14.78
2022-10-17T21:44:56.829Z,14.75
2022-10-17T21:47:38.645Z,14.72
2022-10-17T21:50:23.488Z,14.68
2022-10-17T21:53:05.281Z,14.64
2022-10-17T21:55:46.915Z,14.61
2022-10-17T21:58:29.107Z,14.55
2022-10-17T22:01:16.698Z,14.46
2022-10-17T22:04:01.075Z,14.39
2022-10-17T22:06:44.362Z,14.31
2022-10-17T22:09:27.067Z,14.21
2022-10-17T22:12:08.894Z,14.10
2022-10-17T22:14:50.586Z,13.96
2022-10-17T22:17:32.426Z,13.84
2022-10-17T22:20:14.480Z,13.70
2022-10-17T22:22:56.170Z,13.59
2022-10-17T22:25:37.860Z,13.53
2022-10-17T22:28:19.551Z,13.50
2022-10-17T22:31:01.552Z,13.47
2022-10-17T22:33:43.415Z,13.44
2022-10-17T22:36:25.237Z,13.42
2022-10-17T22:39:07.031Z,13.39
2022-10-17T22:41:48.825Z,13.38
2022-10-17T22:44:30.516Z,13.37
2022-10-17T22:47:12.206Z,13.35
2022-10-17T22:49:53.839Z,13.33
2022-10-17T22:52:35.596Z,13.28
2022-10-17T22:55:17.483Z,13.24
2022-10-17T22:57:59.127Z,13.18
2022-10-17T23:00:40.768Z,13.12
2022-10-17T23:03:23.808Z,13.07
2022-10-17T23:06:05.682Z,13.02
2022-10-17T23:08:48.606Z,12.99
2022-10-17T23:11:30.292Z,12.95
2022-10-17T23:14:12.016Z,12.93
2022-10-17T23:16:53.673Z,12.90
2022-10-17T23:19:35.671Z,12.86
2022-10-17T23:22:17.465Z,12.83
2022-10-17T23:24:59.155Z,12.79
2022-10-17T23:27:40.846Z,12.71
2022-10-17T23:30:22.639Z,12.62
2022-10-17T23:33:04.542Z,12.56
2022-10-17T23:35:46.226Z,12.51
2022-10-17T23:38:27.917Z,12.49
2022-10-17T23:41:09.916Z,12.48
2022-10-17T23:43:51.708Z,12.45
2022-10-17T23:46:33.401Z,12.41
2022-10-17T23:49:15.194Z,12.38
2022-10-17T23:51:56.883Z,12.37
2022-10-17T23:54:38.618Z,12.37
2022-10-17T23:57:20.470Z,12.35
